createdAt,value
2022-09-25T00:03:26.323Z,17.8
2022-09-25T00:08:47.933Z,17.7
2022-09-25T00:14:28.881Z,17.7
2022-09-25T00:20:06.372Z,17.7
2022-09-25T00:25:43.321Z,17.7
2022-09-25T00:31:21.246Z,17.7
2022-09-25T00:36:44.044Z,17.7
2022-09-25T00:42:06.421Z,17.6
2022-09-25T00:47:27.716Z,17.6
2022-09-25T00:53:05.242Z,17.6
2022-09-25T00:58:27.457Z,17.6
2022-09-25T01:04:05.690Z,17.6
2022-09-25T01:09:43.547Z,17.6
2022-09-25T01:15:20.041Z,17.6
2022-09-25T01:20:43.687Z,17.6
2022-09-25T01:26:21.691Z,17.6
2022-09-25T01:31:58.812Z,17.6
2022-09-25T01:37:36.227Z,17.6
2022-09-25T01:43:13.945Z,17.6
2022-09-25T01:48:35.086Z,17.5
2022-09-25T01:53:56.179Z,17.6
2022-09-25T01:59:17.817Z,17.5
2022-09-25T02:04:55.948Z,17.5
2022-09-25T02:10:17.397Z,17.5
2022-09-25T02:15:38.841Z,17.5
2022-09-25T02:20:45.652Z,17.4
2022-09-25T02:26:07.203Z,17.5
2022-09-25T02:31:29.689Z,17.4
2022-09-25T02:36:55.996Z,17.4
2022-09-25T02:42:01.912Z,17.4
2022-09-25T02:47:39.797Z,17.4
2022-09-25T02:53:00.768Z,17.4
2022-09-25T02:58:44.084Z,17.4
2022-09-25T03:04:21.476Z,17.4
2022-09-25T03:09:44.135Z,17.4
2022-09-25T03:14:50.136Z,17.4
2022-09-25T03:20:12.945Z,17.4
2022-09-25T03:25:19.360Z,17.4
2022-09-25T03:30:57.059Z,17.4
2022-09-25T03:36:03.528Z,17.4
2022-09-25T03:41:25.184Z,17.4
2022-09-25T03:46:45.849Z,17.3
2022-09-25T03:52:06.840Z,17.3
2022-09-25T03:56:58.160Z,17.3
2022-09-25T04:02:20.868Z,17.3
2022-09-25T04:07:27.405Z,17.3
2022-09-25T04:12:33.768Z,17.3
2022-09-25T04:17:40.879Z,17.3
2022-09-25T04:22:47.067Z,17.3
2022-09-25T04:27:39.051Z,17.3
2022-09-25T04:33:00.218Z,17.3
2022-09-25T04:38:38.019Z,17.3
2022-09-25T04:43:59.898Z,17.3
2022-09-25T04:49:26.801Z,17.3
2022-09-25T04:54:49.109Z,17.3
2022-09-25T05:00:44.298Z,17.2
2022-09-25T05:06:09.126Z,17.2
2022-09-25T05:11:31.681Z,17.2
2022-09-25T05:16:54.368Z,17.2
2022-09-25T05:22:17.164Z,17.2
2022-09-25T05:27:45.139Z,17.1
2022-09-25T05:32:51.671Z,17.1
2022-09-25T05:38:29.723Z,17.1
2022-09-25T05:44:07.347Z,17.1
2022-09-25T05:49:29.958Z,17.1
2022-09-25T05:55:08.290Z,17.1
2022-09-25T06:00:14.577Z,17.1
2022-09-25T06:16:49.549Z,17.1
2022-09-25T06:22:30.165Z,17.1
2022-09-25T06:28:06.976Z,17.1
2022-09-25T06:33:51.937Z,17.1
2022-09-25T06:39:30.705Z,17.1
2022-09-25T06:45:10.523Z,17.1
2022-09-25T06:50:54.573Z,17.1
2022-09-25T06:56:32.125Z,17.1
2022-09-25T07:02:00.251Z,17.1
2022-09-25T07:07:38.564Z,17.1
2022-09-25T07:13:16.451Z,17.1
2022-09-25T07:18:54.270Z,17.1
2022-09-25T07:24:32.684Z,17.1
2022-09-25T07:30:10.921Z,17.1
2022-09-25T07:35:49.243Z,17.1
2022-09-25T07:41:33.005Z,17.1
2022-09-25T07:47:37.000Z,17.2
2022-09-25T07:53:03.449Z,17.2
2022-09-25T07:58:42.261Z,17.2
2022-09-25T08:04:29.401Z,17.2
2022-09-25T08:10:08.481Z,17.2
2022-09-25T08:15:52.204Z,17.2
2022-09-25T08:21:16.964Z,17.3
2022-09-25T08:26:57.151Z,17.3
2022-09-25T08:32:37.903Z,17.3
2022-09-25T08:38:35.932Z,17.3
2022-09-25T08:44:18.457Z,17.3
2022-09-25T08:50:24.693Z,17.3
2022-09-25T08:55:52.558Z,17.3
2022-09-25T09:01:32.651Z,17.3
2022-09-25T09:07:24.957Z,17.3
2022-09-25T09:12:54.991Z,17.3
2022-09-25T09:18:03.329Z,17.3
2022-09-25T09:23:32.009Z,17.3
2022-09-25T09:28:56.485Z,17.3
2022-09-25T09:34:04.563Z,17.4
2022-09-25T09:40:00.830Z,17.3
2022-09-25T09:45:25.716Z,17.4
2022-09-25T09:51:09.224Z,17.4
2022-09-25T09:56:49.282Z,17.4
2022-09-25T10:03:02.400Z,17.4
2022-09-25T10:08:42.896Z,17.4
2022-09-25T10:14:22.406Z,17.4
2022-09-25T10:20:02.859Z,17.4
2022-09-25T10:25:46.036Z,17.4
2022-09-25T20:08:47.629Z,18.4
2022-09-25T20:14:30.163Z,18.4
2022-09-25T20:20:13.961Z,18.4
2022-09-25T20:25:39.991Z,18.4
2022-09-25T20:31:20.382Z,18.4
2022-09-25T20:36:45.287Z,18.4
2022-09-25T20:42:27.411Z,18.4
2022-09-25T20:47:52.362Z,18.4
2022-09-25T20:53:31.826Z,18.4
2022-09-25T20:59:12.839Z,18.4
2022-09-25T21:04:54.525Z,18.4
2022-09-25T21:10:22.309Z,18.4
2022-09-25T21:16:02.937Z,18.4
2022-09-25T21:21:42.885Z,18.4
2022-09-25T21:27:22.187Z,18.4
2022-09-25T21:32:49.365Z,18.4
2022-09-25T21:38:29.362Z,18.4
2022-09-25T21:43:55.202Z,18.4
2022-09-25T21:49:35.470Z,18.4
2022-09-25T21:55:14.397Z,18.4
2022-09-25T22:00:52.469Z,18.4
2022-09-25T22:06:32.472Z,18.5
2022-09-25T22:12:11.261Z,18.4
2022-09-25T22:17:37.598Z,18.4
2022-09-25T22:23:00.544Z,18.4
2022-09-25T22:28:38.591Z,18.4
2022-09-25T22:34:01.437Z,18.4
2022-09-25T22:39:46.125Z,18.4
2022-09-25T22:45:08.373Z,18.5
2022-09-25T22:50:45.466Z,18.5
2022-09-25T22:56:22.851Z,18.4
2022-09-25T23:02:00.792Z,18.4
2022-09-25T23:07:38.746Z,18.5
2022-09-25T23:13:38.681Z,18.4
2022-09-25T23:19:16.660Z,18.4
2022-09-25T23:24:52.572Z,18.5
2022-09-25T23:30:15.718Z,18.4
2022-09-25T23:35:37.819Z,18.4
2022-09-25T23:41:04.160Z,18.4
2022-09-25T23:46:26.957Z,18.4
2022-09-25T23:52:04.768Z,18.4
2022-09-25T23:57:42.260Z,18.5
